Flight Track Log - Related Links

Times and Time Zones

All times are in EDT time to prevent confusion due to time zone crossing. See the AMF159 flight status page for this flight to view local times or setup timezone preferences in your user account.

Time Position Orientation Groundspeed Altitude Reporting Facility
EDT Latitude Longitude Course Direction KTS MPH feet Rate Location/Type
Fri 07:01:49 AM 34.2333 -118.4000 270° West 158 182 2,300  Level Southern California TRACON
Fri 07:02:49 AM 34.2333 -118.4500 270° West 151 174 3,500 1,100 Climbing Southern California TRACON
Fri 07:03:49 AM 34.2333 -118.5000 270° West 158 182 4,500 943 Climbing Southern California TRACON
Fri 07:05:28 AM 34.2939 -118.5642 319° Northwest 176 203 6,000 943 Climbing Los Angeles Center
Fri 07:06:28 AM 34.3361 -118.5917 332° Northwest 176 203 7,000 1,000 Climbing Los Angeles Center
Fri 07:07:28 AM 34.3797 -118.6167 335° Northwest 175 201 8,000 843 Climbing Los Angeles Center
Fri 07:08:29 AM 34.4231 -118.6397 336° Northwest 171 197 8,700 694 Climbing Los Angeles Center
Fri 07:09:29 AM 34.4664 -118.6642 335° Northwest 172 198 9,400 650 Climbing Los Angeles Center
Fri 07:10:29 AM 34.5108 -118.6881 336° Northwest 174 200 10,000 645 Climbing Los Angeles Center
Fri 07:11:30 AM 34.5558 -118.7161 333° Northwest 181 208 10,700 595 Climbing Los Angeles Center
Fri 07:12:30 AM 34.6006 -118.7428 334° Northwest 180 207 11,200 600 Climbing Los Angeles Center
Fri 07:13:30 AM 34.6469 -118.7714 333° Northwest 187 215 11,900 446 Climbing Los Angeles Center
Fri 07:14:31 AM 34.6961 -118.7972 337° Northwest 194 223 12,100 99 Climbing Los Angeles Center
Fri 07:15:31 AM 34.7464 -118.8314 331° Northwest 205 236 12,100  Level Los Angeles Center
Fri 07:16:31 AM 34.7989 -118.8597 336° Northwest 207 238 12,100  Level Los Angeles Center
Fri 07:17:31 AM 34.8436 -118.9033 321° Northwest 206 237 12,100  Level Los Angeles Center
Fri 07:18:32 AM 34.8886 -118.9447 323° Northwest 204 235 12,100  Level Los Angeles Center
Fri 07:19:32 AM 34.9386 -118.9878 325° Northwest 198 228 12,100  Level Los Angeles Center
Fri 07:20:32 AM 34.9806 -119.0314 320° Northwest 198 228 12,100  Level Los Angeles Center
Fri 07:21:33 AM 35.0233 -119.0739 321° Northwest 196 226 12,100  Level Los Angeles Center
Fri 07:22:33 AM 35.0658 -119.1169 320° Northwest 198 228 12,100  Level Los Angeles Center
Fri 07:23:33 AM 35.1086 -119.1597 321° Northwest 199 229 12,100  Level Los Angeles Center
Fri 07:24:33 AM 35.1503 -119.2017 321° Northwest 197 227 12,100  Level Los Angeles Center
Fri 07:25:34 AM 35.1931 -119.2433 321° Northwest 195 224 12,100  Level Los Angeles Center
Fri 07:26:34 AM 35.2344 -119.2836 322° Northwest 191 220 12,100  Level Los Angeles Center
Fri 07:27:34 AM 35.2778 -119.3250 322° Northwest 195 224 12,100  Level Los Angeles Center
Fri 07:28:35 AM 35.3203 -119.3658 322° Northwest 195 224 12,100  Level Los Angeles Center
Fri 07:29:35 AM 35.3619 -119.4069 321° Northwest 195 224 12,100  Level Los Angeles Center
Fri 07:30:35 AM 35.4056 -119.4475 323° Northwest 196 226 12,100  Level Los Angeles Center
Fri 07:31:35 AM 35.4475 -119.4889 321° Northwest 196 226 12,100  Level Los Angeles Center
Fri 07:32:36 AM 35.4897 -119.5294 322° Northwest 194 223 12,100  Level Los Angeles Center
Fri 07:33:36 AM 35.5314 -119.5722 320° Northwest 196 226 12,100  Level Los Angeles Center
Fri 07:34:36 AM 35.5739 -119.6136 322° Northwest 196 226 12,100  Level Los Angeles Center
Fri 07:35:36 AM 35.6150 -119.6553 321° Northwest 194 223 12,100  Level Los Angeles Center
Fri 07:36:37 AM 35.6567 -119.6969 321° Northwest 194 223 12,100  Level Los Angeles Center
Fri 07:37:37 AM 35.6994 -119.7381 322° Northwest 196 226 12,100  Level Los Angeles Center
Fri 07:38:37 AM 35.7403 -119.7814 319° Northwest 195 224 12,100  Level Los Angeles Center
Fri 07:39:37 AM 35.7819 -119.8236 321° Northwest 196 226 12,100  Level Los Angeles Center
Fri 07:40:38 AM 35.8233 -119.8656 321° Northwest 195 224 12,100  Level Los Angeles Center
Fri 07:41:46 AM 35.8739 -119.9147 322° Northwest 195 224 12,100  Level Oakland Center
Fri 07:42:46 AM 35.9161 -119.9550 322° Northwest 194 223 12,100  Level Oakland Center
Fri 07:43:47 AM 35.9586 -119.9969 321° Northwest 195 224 12,100  Level Oakland Center
Fri 07:44:47 AM 35.9997 -120.0394 320° Northwest 195 224 12,100  Level Oakland Center
Fri 07:45:47 AM 36.0392 -120.0792 321° Northwest 187 215 12,100  Level Oakland Center
Fri 07:46:47 AM 36.0811 -120.1231 320° Northwest 196 226 12,100  Level Oakland Center
Fri 07:47:47 AM 36.1225 -120.1675 319° Northwest 197 227 12,100  Level Oakland Center
Fri 07:48:48 AM 36.1644 -120.2108 320° Northwest 198 228 12,100  Level Oakland Center
Fri 07:49:48 AM 36.2064 -120.2547 320° Northwest 198 228 12,100  Level Oakland Center
Fri 07:50:48 AM 36.2472 -120.2989 319° Northwest 197 227 12,100  Level Oakland Center
Fri 07:51:48 AM 36.2894 -120.3428 320° Northwest 198 228 12,100  Level Oakland Center
Fri 07:52:48 AM 36.3314 -120.3864 320° Northwest 198 228 12,100  Level Oakland Center
Fri 07:53:49 AM 36.3739 -120.4306 320° Northwest 200 230 12,100  Level Oakland Center
Fri 07:54:49 AM 36.4175 -120.4733 322° Northwest 200 230 12,100  Level Oakland Center
Fri 07:55:49 AM 36.4608 -120.5161 322° Northwest 200 230 12,100  Level Oakland Center
Fri 07:56:49 AM 36.5031 -120.5589 321° Northwest 198 228 12,100  Level Oakland Center
Fri 07:57:49 AM 36.5461 -120.6022 321° Northwest 200 230 12,100 -50 Level Oakland Center
Fri 07:58:50 AM 36.5886 -120.6464 320° Northwest 201 231 12,000 -50 Descending Oakland Center
Fri 07:59:50 AM 36.6314 -120.6911 320° Northwest 201 231 12,000  Level Oakland Center
Fri 08:00:50 AM 36.6742 -120.7347 321° Northwest 199 229 12,000 -200 Level Oakland Center
Fri 08:01:50 AM 36.7172 -120.7797 320° Northwest 205 236 11,600 -550 Descending Oakland Center
Fri 08:02:50 AM 36.7628 -120.8325 317° Northwest 221 254 10,900 -650 Descending Oakland Center
Fri 08:03:50 AM 36.8094 -120.8833 319° Northwest 223 257 10,300 -595 Descending Oakland Center
Fri 08:04:51 AM 36.8614 -120.9475 315° West 224 258 9,700 -496 Descending Oakland Center
Fri 08:05:51 AM 36.9078 -121.0006 318° Northwest 226 260 9,300 -450 Descending Oakland Center
Fri 08:06:51 AM 36.9517 -121.0528 316° Northwest 221 254 8,800 -450 Descending Oakland Center
Fri 08:07:51 AM 36.9975 -121.1031 319° Northwest 219 252 8,400 -400 Descending Oakland Center
Fri 08:08:51 AM 37.0425 -121.1539 318° Northwest 219 252 8,000 -198 Descending Oakland Center
Fri 08:09:52 AM 37.0864 -121.2053 317° Northwest 213 245 8,000  Level Oakland Center
Fri 08:10:52 AM 37.1278 -121.2553 316° Northwest 207 238 8,000  Level Oakland Center
Fri 08:11:52 AM 37.1714 -121.3028 319° Northwest 207 238 8,000  Level Oakland Center
Fri 08:12:52 AM 37.2122 -121.3511 317° Northwest 201 231 8,000 -50 Level Oakland Center
Fri 08:13:53 AM 37.2531 -121.3972 318° Northwest 198 228 7,900 -298 Descending Oakland Center
Fri 08:14:53 AM 37.2872 -121.4575 305° West 206 237 7,400 -650 Descending Oakland Center
Fri 08:15:53 AM 37.3244 -121.5203 307° West 219 252 6,600 -700 Descending Oakland Center
Fri 08:16:53 AM 37.3586 -121.5806 306° West 220 253 6,000 -330 Descending Oakland Center
Fri 08:17:24 AM 37.3833 -121.6167 311° West 207 238 6,100 66 Climbing Northern Cal TRACON
Fri 08:18:24 AM 37.4167 -121.6667 310° West 201 231 6,100 -250 Level Northern Cal TRACON
Fri 08:19:24 AM 37.4500 -121.7333 302° West 201 231 5,600 -600 Descending Northern Cal TRACON
Fri 08:20:24 AM 37.4833 -121.7833 310° West 199 229 4,900 -800 Descending Northern Cal TRACON
Fri 08:21:24 AM 37.5167 -121.8333 310° West 199 229 4,000 -850 Descending Northern Cal TRACON
Fri 08:22:24 AM 37.5500 -121.9000 302° West 203 234 3,200 -800 Descending Northern Cal TRACON

Login

Don't have an account? Register now (free) for customized features, flight alerts, and more!